createdAt,value
2023-03-06T00:54:53.585Z,370.00
2023-03-06T00:55:54.545Z,371.00
2023-03-06T00:56:54.538Z,371.00
2023-03-06T00:57:54.525Z,372.00
2023-03-06T00:58:54.522Z,372.00
2023-03-06T00:59:54.512Z,373.00
2023-03-06T01:00:54.519Z,374.00
2023-03-06T01:01:54.629Z,374.00
2023-03-06T01:02:54.478Z,375.00
2023-03-06T01:03:54.476Z,375.00
2023-03-06T01:04:54.466Z,373.00
2023-03-06T01:05:54.462Z,375.00
2023-03-06T01:06:54.442Z,377.00
2023-03-06T01:07:54.439Z,377.00
2023-03-06T01:08:54.423Z,379.00
2023-03-06T01:09:54.413Z,378.00
2023-03-06T01:10:54.445Z,376.00
2023-03-06T01:11:54.394Z,375.00
2023-03-06T01:12:54.817Z,373.00
2023-03-06T01:13:54.393Z,374.00
2023-03-06T01:14:54.371Z,374.00
2023-03-06T01:15:54.385Z,374.00
2023-03-06T01:16:54.361Z,377.00
2023-03-06T01:17:54.341Z,379.00
2023-03-06T01:18:54.337Z,378.00
2023-03-06T01:19:54.327Z,379.00
2023-03-06T01:20:54.312Z,379.00
2023-03-06T01:21:54.305Z,379.00
2023-03-06T01:22:54.299Z,380.00
2023-03-06T01:23:54.288Z,380.00
2023-03-06T01:24:54.277Z,382.00
2023-03-06T01:25:54.270Z,382.00
2023-03-06T01:26:54.279Z,382.00
2023-03-06T01:27:54.260Z,379.00
2023-03-06T01:28:54.240Z,378.00
2023-03-06T01:29:54.232Z,380.00
2023-03-06T01:30:54.218Z,381.00
2023-03-06T01:31:54.246Z,379.00
2023-03-06T01:32:54.203Z,378.00
2023-03-06T01:33:54.190Z,380.00
2023-03-06T01:34:54.180Z,381.00
2023-03-06T01:35:54.245Z,383.00
2023-03-06T01:36:54.176Z,383.00
2023-03-06T01:37:54.154Z,384.00
2023-03-06T01:38:54.151Z,385.00
2023-03-06T01:39:54.138Z,384.00
2023-03-06T01:40:54.130Z,383.00
2023-03-06T01:41:54.127Z,384.00
2023-03-06T01:42:54.137Z,386.00
2023-03-06T01:43:54.111Z,384.00
2023-03-06T01:44:54.091Z,384.00
2023-03-06T01:45:54.125Z,386.00
2023-03-06T01:46:54.078Z,387.00
2023-03-06T01:47:54.065Z,386.00
2023-03-06T01:48:54.053Z,385.00
2023-03-06T01:49:54.049Z,385.00
2023-03-06T01:50:54.049Z,385.00
2023-03-06T01:51:54.036Z,385.00
2023-03-06T01:52:54.021Z,384.00
2023-03-06T01:53:54.008Z,382.00
2023-03-06T01:54:54.006Z,380.00
2023-03-06T01:55:53.994Z,379.00
2023-03-06T01:56:53.988Z,380.00
2023-03-06T01:57:53.987Z,380.00
2023-03-06T01:58:54.004Z,380.00
2023-03-06T01:59:53.959Z,381.00
2023-03-06T02:00:53.997Z,386.00
2023-03-06T02:01:53.946Z,386.00
2023-03-06T02:02:53.930Z,384.00
2023-03-06T02:03:53.927Z,384.00
2023-03-06T02:04:53.915Z,386.00
2023-03-06T02:05:53.906Z,385.00
2023-03-06T02:06:53.902Z,382.00
2023-03-06T02:07:53.887Z,382.00
2023-03-06T02:08:53.890Z,382.00
2023-03-06T02:09:53.868Z,383.00
2023-03-06T02:10:53.862Z,384.00
2023-03-06T02:11:53.853Z,383.00
2023-03-06T02:12:53.842Z,383.00
2023-03-06T02:13:53.840Z,382.00
2023-03-06T02:14:54.103Z,384.00
2023-03-06T02:15:53.818Z,382.00
2023-03-06T02:16:53.829Z,380.00
2023-03-06T02:17:53.797Z,383.00
2023-03-06T02:18:53.801Z,387.00
2023-03-06T02:19:53.789Z,386.00
2023-03-06T02:20:53.777Z,387.00
2023-03-06T02:21:53.765Z,386.00
2023-03-06T02:22:53.754Z,383.00
2023-03-06T02:23:53.751Z,380.00
2023-03-06T02:24:53.737Z,381.00
2023-03-06T02:25:53.729Z,382.00
2023-03-06T02:26:53.732Z,382.00
2023-03-06T02:27:53.712Z,381.00
2023-03-06T02:28:53.700Z,381.00
2023-03-06T02:29:53.688Z,381.00
2023-03-06T02:30:53.756Z,380.00
2023-03-06T02:31:53.675Z,378.00
2023-03-06T02:32:53.662Z,378.00
2023-03-06T02:33:53.651Z,378.00
2023-03-06T02:34:54.287Z,377.00
2023-03-06T02:35:53.686Z,376.00
2023-03-06T02:36:53.630Z,377.00
2023-03-06T02:37:53.623Z,378.00
2023-03-06T02:38:53.615Z,378.00
2023-03-06T02:39:53.600Z,376.00
2023-03-06T02:40:53.596Z,377.00
2023-03-06T02:41:53.581Z,378.00
2023-03-06T02:42:53.585Z,379.00
2023-03-06T02:43:53.567Z,378.00
2023-03-06T02:44:53.575Z,378.00
2023-03-06T02:45:53.602Z,380.00
2023-03-06T02:46:53.559Z,378.00
2023-03-06T02:47:53.529Z,380.00
2023-03-06T02:48:53.519Z,380.00
2023-03-06T02:49:53.522Z,379.00
2023-03-06T02:50:53.496Z,378.00
2023-03-06T02:51:53.522Z,378.00
2023-03-06T02:52:53.481Z,380.00
2023-03-06T02:53:53.494Z,382.00
2023-03-06T02:54:53.471Z,385.00
2023-03-06T02:55:53.478Z,386.00
2023-03-06T02:56:53.437Z,384.00
2023-03-06T02:57:53.436Z,382.00
2023-03-06T02:58:53.423Z,381.00
2023-03-06T02:59:53.423Z,380.00
2023-03-06T03:00:53.408Z,378.00
2023-03-06T03:01:53.436Z,377.00
2023-03-06T03:02:53.410Z,377.00
2023-03-06T03:03:53.383Z,376.00
2023-03-06T03:04:53.405Z,378.00
2023-03-06T03:05:53.362Z,380.00
2023-03-06T03:06:53.349Z,381.00
2023-03-06T03:07:53.349Z,381.00
2023-03-06T03:08:53.333Z,380.00
2023-03-06T03:09:53.321Z,379.00
2023-03-06T03:10:53.315Z,378.00
2023-03-06T03:11:53.304Z,379.00
2023-03-06T03:12:53.300Z,379.00
2023-03-06T03:13:53.289Z,379.00
2023-03-06T03:14:53.277Z,378.00
2023-03-06T03:15:53.287Z,377.00
2023-03-06T03:16:53.259Z,379.00
2023-03-06T03:17:53.254Z,379.00
2023-03-06T03:18:53.265Z,379.00
2023-03-06T03:19:53.235Z,379.00
2023-03-06T03:20:53.236Z,379.00
2023-03-06T03:21:53.216Z,379.00
2023-03-06T03:22:53.220Z,379.00
2023-03-06T03:23:53.199Z,376.00
2023-03-06T03:24:53.272Z,375.00
2023-03-06T03:25:53.182Z,375.00
2023-03-06T03:26:53.173Z,377.00
2023-03-06T03:27:53.170Z,378.00
2023-03-06T03:28:53.155Z,380.00
2023-03-06T03:29:53.150Z,378.00
2023-03-06T03:30:53.221Z,378.00
2023-03-06T03:31:53.134Z,380.00
2023-03-06T03:32:53.122Z,380.00
2023-03-06T03:33:53.112Z,382.00
2023-03-06T03:34:53.131Z,383.00
2023-03-06T03:35:53.107Z,383.00
2023-03-06T03:36:53.087Z,382.00
2023-03-06T03:37:53.094Z,381.00
2023-03-06T03:38:53.067Z,379.00
2023-03-06T03:39:53.059Z,378.00
2023-03-06T03:40:53.048Z,378.00
2023-03-06T03:41:53.044Z,377.00
2023-03-06T03:42:53.032Z,377.00
2023-03-06T03:43:53.021Z,375.00
2023-03-06T03:44:53.012Z,374.00
2023-03-06T03:45:53.008Z,376.00
2023-03-06T03:46:52.998Z,378.00
2023-03-06T03:47:52.993Z,379.00
2023-03-06T03:48:52.981Z,378.00
2023-03-06T03:49:52.974Z,377.00
2023-03-06T03:50:53.000Z,375.00
2023-03-06T03:51:52.954Z,375.00
2023-03-06T03:52:52.949Z,373.00
2023-03-06T03:53:52.930Z,371.00
2023-03-06T03:54:52.927Z,375.00
2023-03-06T03:55:52.914Z,377.00
2023-03-06T03:56:52.907Z,376.00
2023-03-06T03:57:52.894Z,374.00
2023-03-06T03:58:52.896Z,371.00
2023-03-06T03:59:52.880Z,371.00
2023-03-06T04:00:52.872Z,372.00
2023-03-06T04:01:53.012Z,370.00
2023-03-06T04:02:52.857Z,371.00
2023-03-06T04:03:52.836Z,372.00
2023-03-06T04:04:52.864Z,372.00
2023-03-06T04:05:52.822Z,372.00
2023-03-06T04:06:52.848Z,373.00
2023-03-06T04:07:52.806Z,369.00
2023-03-06T04:08:52.793Z,370.00
2023-03-06T04:09:52.783Z,368.00
2023-03-06T04:10:52.779Z,367.00
2023-03-06T04:11:52.771Z,365.00
2023-03-06T04:12:52.785Z,364.00
2023-03-06T04:13:52.759Z,366.00
2023-03-06T04:14:52.744Z,367.00
2023-03-06T04:15:52.780Z,369.00
2023-03-06T04:16:52.723Z,368.00
2023-03-06T04:17:52.711Z,367.00
2023-03-06T04:18:52.705Z,368.00
2023-03-06T04:19:52.702Z,370.00
2023-03-06T04:20:52.700Z,371.00
2023-03-06T04:21:52.676Z,371.00
2023-03-06T04:22:52.692Z,370.00
2023-03-06T04:23:52.662Z,370.00
2023-03-06T04:24:52.650Z,373.00
2023-03-06T04:25:52.648Z,371.00
2023-03-06T04:26:52.633Z,370.00
2023-03-06T04:27:52.624Z,372.00
2023-03-06T04:28:52.620Z,370.00
2023-03-06T04:29:52.609Z,370.00
2023-03-06T04:30:52.610Z,369.00
2023-03-06T04:31:52.588Z,369.00
2023-03-06T04:32:52.578Z,369.00
2023-03-06T04:33:52.576Z,371.00
2023-03-06T04:34:52.566Z,373.00
2023-03-06T04:35:52.589Z,375.00
2023-03-06T04:36:52.544Z,375.00
2023-03-06T04:37:52.543Z,375.00
2023-03-06T04:38:52.608Z,373.00
2023-03-06T04:39:52.518Z,373.00
2023-03-06T04:40:52.508Z,376.00
2023-03-06T04:41:52.507Z,376.00
2023-03-06T04:42:52.494Z,376.00
2023-03-06T04:43:52.490Z,378.00
2023-03-06T04:44:52.474Z,378.00
2023-03-06T04:45:52.575Z,379.00
2023-03-06T04:46:52.457Z,379.00
2023-03-06T04:47:52.449Z,379.00
2023-03-06T04:48:52.443Z,380.00
2023-03-06T04:49:52.431Z,380.00
2023-03-06T04:50:52.423Z,382.00
2023-03-06T04:51:52.417Z,382.00
2023-03-06T04:52:52.396Z,381.00
2023-03-06T04:53:52.415Z,380.00
2023-03-06T04:54:52.411Z,379.00
2023-03-06T04:55:52.377Z,378.00
2023-03-06T04:56:52.367Z,375.00
2023-03-06T04:57:52.356Z,377.00
2023-03-06T04:58:52.356Z,376.00
2023-03-06T04:59:52.344Z,377.00
2023-03-06T05:00:52.406Z,379.00
2023-03-06T05:01:52.371Z,379.00
2023-03-06T05:02:52.315Z,379.00
2023-03-06T05:03:52.304Z,382.00
2023-03-06T05:04:52.300Z,381.00
2023-03-06T05:05:52.281Z,381.00
2023-03-06T05:06:52.276Z,379.00
2023-03-06T05:07:52.271Z,378.00
2023-03-06T05:08:52.253Z,378.00
2023-03-06T05:09:52.249Z,379.00
2023-03-06T05:10:52.262Z,380.00
2023-03-06T05:11:52.227Z,380.00
2023-03-06T05:12:52.220Z,382.00
2023-03-06T05:13:52.210Z,383.00
2023-03-06T05:14:52.201Z,381.00
2023-03-06T05:15:52.191Z,381.00
2023-03-06T05:16:52.190Z,380.00
2023-03-06T05:17:52.837Z,380.00
2023-03-06T05:18:52.175Z,380.00
2023-03-06T05:19:52.155Z,379.00
2023-03-06T05:20:52.147Z,379.00
2023-03-06T05:21:52.134Z,378.00
2023-03-06T05:22:52.129Z,377.00
2023-03-06T05:23:52.122Z,380.00
2023-03-06T05:24:52.109Z,380.00
2023-03-06T05:25:52.102Z,380.00
2023-03-06T05:26:52.117Z,379.00
2023-03-06T05:27:52.079Z,378.00
2023-03-06T05:28:52.083Z,378.00
2023-03-06T05:29:52.065Z,381.00
2023-03-06T05:30:52.069Z,380.00
2023-03-06T05:31:52.127Z,379.00
2023-03-06T05:32:52.064Z,379.00
2023-03-06T05:33:52.028Z,379.00
2023-03-06T05:34:52.019Z,380.00
2023-03-06T05:35:52.060Z,380.00
2023-03-06T05:36:52.049Z,380.00
2023-03-06T05:37:51.998Z,377.00
2023-03-06T05:38:51.995Z,377.00
2023-03-06T05:39:51.993Z,378.00
2023-03-06T05:40:51.985Z,380.00
2023-03-06T05:41:51.969Z,378.00
2023-03-06T05:42:51.987Z,379.00
2023-03-06T05:43:51.943Z,379.00
2023-03-06T05:44:51.958Z,380.00
2023-03-06T05:45:51.993Z,381.00
2023-03-06T05:46:51.920Z,381.00
2023-03-06T05:47:51.923Z,378.00
2023-03-06T05:48:51.902Z,378.00
2023-03-06T05:49:51.900Z,375.00
2023-03-06T05:50:51.883Z,374.00
2023-03-06T05:51:51.872Z,375.00
2023-03-06T05:52:51.861Z,373.00
2023-03-06T05:53:51.855Z,373.00
2023-03-06T05:54:51.844Z,373.00
2023-03-06T05:55:51.848Z,368.00
2023-03-06T05:56:51.827Z,368.00
2023-03-06T05:57:51.815Z,368.00
2023-03-06T05:58:51.856Z,370.00
2023-03-06T05:59:51.829Z,369.00
2023-03-06T06:00:51.790Z,372.00
2023-03-06T06:01:51.777Z,375.00
2023-03-06T06:02:51.833Z,376.00
2023-03-06T06:03:51.886Z,377.00
2023-03-06T06:04:51.751Z,377.00
2023-03-06T06:05:51.800Z,376.00
2023-03-06T06:06:51.732Z,376.00
2023-03-06T06:07:51.723Z,375.00
2023-03-06T06:08:51.713Z,375.00
2023-03-06T06:09:51.838Z,374.00
2023-03-06T06:10:53.464Z,373.00
2023-03-06T06:11:51.691Z,375.00
2023-03-06T06:12:51.690Z,377.00
2023-03-06T06:13:51.674Z,379.00
2023-03-06T06:14:51.684Z,383.00
2023-03-06T06:15:51.722Z,384.00
2023-03-06T06:16:51.651Z,384.00
2023-03-06T06:17:51.635Z,381.00
2023-03-06T06:18:51.625Z,380.00
2023-03-06T06:19:51.616Z,378.00
2023-03-06T06:20:51.606Z,379.00
2023-03-06T06:21:51.596Z,381.00
2023-03-06T06:22:51.834Z,381.00
2023-03-06T06:23:51.585Z,381.00
2023-03-06T06:24:51.565Z,381.00
2023-03-06T06:25:51.560Z,381.00
2023-03-06T06:26:51.550Z,382.00
2023-03-06T06:27:51.547Z,385.00
2023-03-06T06:28:51.847Z,384.00
2023-03-06T06:29:51.522Z,386.00
2023-03-06T06:30:51.566Z,389.00
2023-03-06T06:31:51.532Z,391.00
2023-03-06T06:32:51.517Z,392.00
2023-03-06T06:33:51.488Z,393.00
2023-03-06T06:34:51.481Z,395.00
2023-03-06T06:35:51.523Z,398.00
2023-03-06T06:36:53.398Z,400.00
2023-03-06T06:37:51.449Z,400.00
2023-03-06T06:38:51.448Z,402.00
2023-03-06T06:39:51.435Z,407.00
2023-03-06T06:41:25.556Z,409.00
2023-03-06T06:42:05.531Z,409.00
2023-03-06T06:42:51.411Z,410.00
2023-03-06T06:43:51.849Z,410.00
2023-03-06T06:44:51.423Z,412.00
2023-03-06T06:45:52.186Z,413.00
2023-03-06T06:47:51.649Z,423.00
2023-03-06T06:48:51.569Z,428.00
2023-03-06T06:50:51.565Z,440.00
2023-03-06T06:51:51.849Z,506.00
2023-03-06T06:52:51.591Z,515.00
2023-03-06T06:53:51.550Z,521.00
2023-03-06T06:54:51.849Z,603.00
2023-03-06T06:56:51.497Z,625.00
2023-03-06T06:57:51.686Z,621.00
2023-03-06T06:58:51.488Z,606.00
2023-03-06T06:59:53.899Z,596.00
2023-03-06T07:02:51.489Z,584.00
2023-03-06T07:03:51.444Z,583.00
2023-03-06T07:05:04.772Z,580.00
2023-03-06T07:05:51.525Z,577.00
2023-03-06T07:06:51.888Z,575.00
2023-03-06T07:07:52.401Z,574.00
2023-03-06T07:08:51.389Z,570.00
2023-03-06T07:09:51.380Z,570.00
2023-03-06T07:10:51.437Z,569.00
2023-03-06T07:12:07.451Z,568.00
2023-03-06T07:12:51.357Z,563.00
2023-03-06T07:14:51.351Z,557.00
2023-03-06T07:15:51.391Z,555.00
2023-03-06T07:16:51.358Z,553.00
2023-03-06T07:17:51.356Z,552.00
2023-03-06T07:18:51.350Z,552.00
2023-03-06T07:19:51.302Z,551.00
2023-03-06T07:20:51.364Z,549.00
2023-03-06T07:21:51.281Z,548.00
2023-03-06T07:22:52.028Z,547.00
2023-03-06T07:23:51.254Z,546.00
2023-03-06T07:24:51.249Z,544.00
2023-03-06T07:25:51.362Z,544.00
2023-03-06T07:26:51.250Z,541.00
2023-03-06T07:27:53.867Z,540.00
2023-03-06T07:28:52.934Z,538.00
2023-03-06T07:29:51.201Z,540.00
2023-03-06T07:30:51.323Z,539.00
2023-03-06T07:31:51.185Z,537.00
2023-03-06T07:32:51.185Z,535.00
2023-03-06T07:33:51.169Z,536.00
2023-03-06T07:34:51.181Z,536.00
2023-03-06T07:35:51.173Z,536.00
2023-03-06T07:36:51.146Z,536.00
2023-03-06T07:37:51.372Z,536.00
2023-03-06T07:38:51.121Z,535.00
2023-03-06T07:39:51.362Z,534.00
2023-03-06T07:40:51.514Z,535.00
2023-03-06T07:41:51.094Z,533.00
2023-03-06T07:42:51.086Z,534.00
2023-03-06T07:43:51.093Z,532.00
2023-03-06T07:44:51.373Z,534.00
2023-03-06T07:45:51.065Z,533.00
2023-03-06T07:46:51.085Z,534.00
2023-03-06T07:47:51.398Z,537.00
2023-03-06T07:48:51.588Z,538.00
2023-03-06T07:49:51.374Z,540.00
2023-03-06T07:50:51.892Z,542.00
2023-03-06T07:51:51.025Z,540.00
2023-03-06T07:52:50.997Z,540.00
2023-03-06T07:53:51.257Z,543.00
2023-03-06T07:54:51.373Z,543.00
2023-03-06T07:55:50.991Z,539.00
2023-03-06T07:56:50.962Z,538.00
2023-03-06T07:57:51.373Z,540.00
2023-03-06T07:58:50.941Z,540.00
2023-03-06T07:59:50.940Z,544.00
2023-03-06T08:00:51.399Z,548.00
2023-03-06T08:01:50.920Z,548.00
2023-03-06T08:02:51.404Z,551.00
2023-03-06T08:03:50.961Z,551.00
2023-03-06T08:04:50.895Z,548.00
2023-03-06T08:06:50.898Z,547.00
2023-03-06T08:07:50.878Z,548.00
2023-03-06T08:08:50.866Z,549.00
2023-03-06T08:09:50.874Z,547.00
2023-03-06T08:10:50.875Z,545.00
2023-03-06T08:11:50.864Z,544.00
2023-03-06T08:12:50.916Z,542.00
2023-03-06T08:13:51.325Z,538.00
2023-03-06T08:14:50.833Z,537.00
2023-03-06T08:15:50.828Z,534.00
2023-03-06T08:16:51.088Z,535.00
2023-03-06T08:17:50.908Z,535.00
2023-03-06T08:18:50.782Z,535.00
2023-03-06T08:19:51.642Z,536.00
2023-03-06T08:20:51.689Z,538.00
2023-03-06T08:21:50.773Z,536.00
2023-03-06T08:22:50.908Z,536.00
2023-03-06T08:23:50.787Z,536.00
2023-03-06T08:24:50.772Z,535.00
2023-03-06T08:25:50.768Z,534.00
2023-03-06T08:26:50.759Z,531.00
2023-03-06T08:27:51.012Z,530.00
2023-03-06T08:28:50.711Z,529.00
2023-03-06T08:29:50.691Z,528.00
2023-03-06T08:30:50.682Z,525.00
2023-03-06T08:31:50.796Z,525.00
2023-03-06T08:32:50.916Z,524.00
2023-03-06T08:33:50.648Z,520.00
2023-03-06T08:34:50.655Z,521.00
2023-03-06T08:35:50.685Z,521.00
2023-03-06T08:36:50.632Z,530.00
2023-03-06T08:37:50.885Z,541.00
2023-03-06T08:38:50.607Z,546.00
2023-03-06T08:39:50.576Z,551.00
2023-03-06T08:40:50.887Z,561.00
2023-03-06T08:41:50.554Z,606.00
2023-03-06T08:42:50.565Z,608.00
2023-03-06T08:43:50.889Z,604.00
2023-03-06T08:44:50.542Z,606.00
2023-03-06T08:45:50.557Z,607.00
2023-03-06T08:46:50.889Z,565.00
2023-03-06T08:47:50.496Z,560.00
2023-03-06T08:48:50.501Z,568.00
2023-03-06T08:49:50.889Z,555.00
2023-03-06T08:50:50.481Z,535.00
2023-03-06T08:51:50.470Z,528.00
2023-03-06T08:52:50.452Z,525.00
2023-03-06T08:53:50.894Z,521.00
2023-03-06T08:55:50.425Z,514.00
2023-03-06T08:56:51.441Z,517.00
2023-03-06T08:57:50.415Z,518.00
2023-03-06T08:58:50.938Z,521.00
2023-03-06T08:59:50.416Z,539.00
2023-03-06T09:00:50.495Z,550.00
2023-03-06T09:01:51.383Z,546.00
2023-03-06T09:02:50.364Z,547.00
2023-03-06T09:03:50.398Z,550.00
2023-03-06T09:04:50.345Z,553.00
2023-03-06T09:05:50.329Z,558.00
2023-03-06T09:06:50.892Z,568.00
2023-03-06T09:07:50.312Z,579.00
2023-03-06T09:21:50.185Z,794.00
2023-03-06T09:35:50.124Z,904.00
2023-03-06T09:41:50.415Z,864.00
2023-03-06T09:45:50.339Z,877.00
2023-03-06T09:51:49.915Z,925.00
2023-03-06T09:58:49.900Z,894.00
2023-03-06T10:01:49.971Z,883.00
2023-03-06T10:05:49.810Z,883.00
2023-03-06T10:13:49.763Z,884.00
2023-03-06T10:14:49.746Z,883.00
2023-03-06T10:25:49.962Z,861.00
2023-03-06T10:35:49.701Z,852.00
2023-03-06T10:36:49.964Z,850.00
2023-03-06T10:47:49.462Z,903.00
2023-03-06T10:51:49.406Z,871.00
2023-03-06T10:52:49.433Z,883.00
2023-03-06T10:55:49.360Z,895.00
2023-03-06T10:56:49.366Z,892.00
2023-03-06T10:57:50.430Z,899.00
2023-03-06T10:59:49.441Z,893.00
2023-03-06T11:01:49.349Z,882.00
2023-03-06T11:02:49.495Z,884.00
2023-03-06T11:05:49.273Z,869.00
2023-03-06T11:06:49.469Z,880.00
2023-03-06T11:08:49.240Z,903.00
2023-03-06T11:09:49.242Z,904.00
2023-03-06T11:10:49.439Z,899.00
2023-03-06T11:12:56.633Z,899.00
2023-03-06T11:14:49.221Z,880.00
2023-03-06T11:15:49.468Z,889.00
2023-03-06T11:17:49.165Z,902.00
2023-03-06T11:18:49.476Z,897.00
2023-03-06T11:20:52.634Z,882.00
2023-03-06T11:21:49.135Z,881.00
2023-03-06T11:22:49.361Z,850.00
2023-03-06T11:25:49.098Z,864.00
2023-03-06T11:28:49.512Z,868.00
2023-03-06T11:32:49.972Z,906.00
2023-03-06T11:35:49.032Z,884.00
2023-03-06T11:36:48.997Z,884.00
2023-03-06T11:37:49.452Z,879.00
2023-03-06T11:38:48.995Z,886.00
2023-03-06T11:39:49.655Z,887.00
2023-03-06T11:40:48.998Z,889.00
2023-03-06T11:41:48.961Z,886.00
2023-03-06T11:42:49.452Z,882.00
2023-03-06T11:43:48.950Z,878.00
2023-03-06T11:44:48.954Z,876.00
2023-03-06T11:45:48.933Z,876.00
2023-03-06T11:46:49.011Z,872.00
2023-03-06T11:48:49.470Z,875.00
2023-03-06T11:49:49.306Z,873.00
2023-03-06T11:50:48.923Z,867.00
2023-03-06T11:51:48.962Z,867.00
2023-03-06T11:52:48.949Z,868.00
2023-03-06T11:54:48.834Z,880.00
2023-03-06T11:55:48.902Z,907.00
2023-03-06T11:56:48.962Z,900.00
2023-03-06T11:57:48.813Z,895.00
2023-03-06T11:58:48.958Z,888.00
2023-03-06T11:59:48.799Z,887.00
2023-03-06T12:00:48.796Z,883.00
2023-03-06T12:01:49.821Z,883.00
2023-03-06T12:02:48.768Z,885.00
2023-03-06T12:03:48.960Z,889.00
2023-03-06T12:04:48.769Z,891.00
2023-03-06T12:05:48.760Z,889.00
2023-03-06T12:06:48.767Z,890.00
2023-03-06T12:07:48.722Z,885.00
2023-03-06T12:08:48.960Z,887.00
2023-03-06T12:09:48.962Z,885.00
2023-03-06T12:10:51.736Z,887.00
2023-03-06T12:11:49.520Z,881.00
2023-03-06T12:12:48.709Z,884.00
2023-03-06T12:13:48.961Z,887.00
2023-03-06T12:14:48.874Z,882.00
2023-03-06T12:15:48.654Z,835.00
2023-03-06T12:16:48.704Z,819.00
2023-03-06T12:17:48.641Z,819.00
2023-03-06T12:18:48.967Z,814.00
2023-03-06T12:19:48.968Z,756.00
2023-03-06T12:20:48.966Z,738.00
2023-03-06T12:21:48.613Z,741.00
2023-03-06T12:22:57.875Z,740.00
2023-03-06T12:23:50.036Z,744.00
2023-03-06T12:25:48.596Z,740.00
2023-03-06T12:26:48.564Z,733.00
2023-03-06T12:27:48.561Z,735.00
2023-03-06T12:28:48.544Z,736.00
2023-03-06T12:29:48.980Z,738.00
2023-03-06T12:30:48.537Z,737.00
2023-03-06T12:31:48.579Z,735.00
2023-03-06T12:32:48.575Z,732.00
2023-03-06T12:33:48.503Z,730.00
2023-03-06T12:34:48.978Z,732.00
2023-03-06T12:35:48.567Z,731.00
2023-03-06T12:36:48.478Z,725.00
2023-03-06T12:37:48.978Z,713.00
2023-03-06T12:38:48.533Z,716.00
2023-03-06T12:39:48.463Z,723.00
2023-03-06T12:40:48.941Z,727.00
2023-03-06T12:41:48.435Z,733.00
2023-03-06T12:42:48.421Z,738.00
2023-03-06T12:43:48.411Z,733.00
2023-03-06T12:44:48.600Z,740.00
2023-03-06T12:45:48.460Z,741.00
2023-03-06T12:46:48.389Z,727.00
2023-03-06T12:47:48.393Z,708.00
2023-03-06T12:48:48.407Z,705.00
2023-03-06T12:49:48.603Z,712.00
2023-03-06T12:50:48.476Z,721.00
2023-03-06T12:51:48.353Z,732.00
2023-03-06T12:52:48.371Z,748.00
2023-03-06T12:53:48.333Z,753.00
2023-03-06T12:54:48.354Z,759.00
2023-03-06T12:55:48.486Z,765.00
2023-03-06T12:56:48.305Z,775.00
2023-03-06T12:57:48.299Z,774.00
2023-03-06T12:58:48.489Z,777.00
2023-03-06T12:59:48.286Z,781.00
2023-03-06T13:00:52.590Z,789.00
2023-03-06T13:01:48.309Z,799.00
2023-03-06T13:02:48.530Z,817.00
2023-03-06T13:03:48.246Z,825.00
2023-03-06T13:04:48.239Z,816.00
2023-03-06T13:05:48.247Z,813.00
2023-03-06T13:06:50.944Z,818.00
2023-03-06T13:07:48.499Z,822.00
2023-03-06T13:08:48.448Z,804.00
2023-03-06T13:10:48.540Z,800.00
2023-03-06T13:11:48.179Z,799.00
2023-03-06T13:12:48.486Z,826.00
2023-03-06T13:13:48.163Z,847.00
2023-03-06T13:14:54.058Z,833.00
2023-03-06T13:15:48.149Z,835.00
2023-03-06T13:16:48.189Z,844.00
2023-03-06T13:17:48.128Z,848.00
2023-03-06T13:18:48.496Z,847.00
2023-03-06T13:19:48.114Z,843.00
2023-03-06T13:20:48.491Z,839.00
2023-03-06T13:21:48.553Z,845.00
2023-03-06T13:22:48.092Z,848.00
2023-03-06T13:23:48.086Z,852.00
2023-03-06T13:24:49.476Z,860.00
2023-03-06T13:25:48.109Z,861.00
2023-03-06T13:26:48.170Z,859.00
2023-03-06T13:27:48.040Z,857.00
2023-03-06T13:28:48.039Z,849.00
2023-03-06T13:29:48.493Z,850.00
2023-03-06T13:30:48.040Z,869.00
2023-03-06T13:31:48.066Z,896.00
2023-03-06T13:32:48.493Z,898.00
2023-03-06T13:33:48.006Z,899.00
2023-03-06T13:34:47.985Z,896.00
2023-03-06T13:35:48.047Z,891.00
2023-03-06T13:36:47.973Z,886.00
2023-03-06T13:37:48.000Z,877.00
2023-03-06T13:38:47.999Z,880.00
2023-03-06T13:39:47.938Z,842.00
2023-03-06T13:40:47.930Z,835.00
2023-03-06T13:41:47.929Z,835.00
2023-03-06T13:42:47.935Z,839.00
2023-03-06T13:43:47.920Z,840.00
2023-03-06T13:44:47.927Z,837.00
2023-03-06T13:45:47.942Z,838.00
2023-03-06T13:46:47.880Z,838.00
2023-03-06T13:48:25.042Z,829.00
2023-03-06T13:48:47.916Z,764.00
2023-03-06T13:49:47.854Z,780.00
2023-03-06T13:50:47.858Z,783.00
2023-03-06T13:51:47.847Z,770.00
2023-03-06T13:52:47.829Z,767.00
2023-03-06T13:53:47.875Z,773.00
2023-03-06T13:54:47.813Z,782.00
2023-03-06T13:55:47.998Z,804.00
2023-03-06T13:56:47.808Z,807.00
2023-03-06T13:57:47.793Z,787.00
2023-03-06T13:58:48.034Z,700.00
2023-03-06T13:59:50.511Z,700.00
2023-03-06T14:00:47.758Z,739.00
2023-03-06T14:01:47.803Z,807.00
2023-03-06T14:02:47.750Z,810.00
2023-03-06T14:03:48.007Z,812.00
2023-03-06T14:04:47.732Z,810.00
2023-03-06T14:06:47.709Z,813.00
2023-03-06T14:07:47.698Z,819.00
2023-03-06T14:08:48.446Z,839.00
2023-03-06T14:09:48.013Z,847.00
2023-03-06T14:10:48.315Z,852.00
2023-03-06T14:11:48.106Z,851.00
2023-03-06T14:12:47.954Z,851.00
2023-03-06T14:14:48.417Z,845.00
2023-03-06T14:15:48.147Z,847.00
2023-03-06T14:16:50.417Z,852.00
2023-03-06T14:17:47.622Z,852.00
2023-03-06T14:18:47.602Z,855.00
2023-03-06T14:19:48.000Z,862.00
2023-03-06T14:20:47.590Z,867.00
2023-03-06T14:21:47.605Z,873.00
2023-03-06T14:23:47.565Z,875.00
2023-03-06T14:24:47.558Z,872.00
2023-03-06T14:26:47.536Z,863.00
2023-03-06T14:27:47.533Z,863.00
2023-03-06T14:29:48.009Z,863.00
2023-03-06T14:30:47.526Z,863.00
2023-03-06T14:31:47.486Z,858.00
2023-03-06T14:32:47.481Z,856.00
2023-03-06T14:33:47.465Z,853.00
2023-03-06T14:34:47.510Z,781.00
2023-03-06T14:35:47.489Z,637.00
2023-03-06T14:36:47.515Z,587.00
2023-03-06T14:37:47.440Z,582.00
2023-03-06T14:38:47.473Z,591.00
2023-03-06T14:39:47.513Z,598.00
2023-03-06T14:40:47.413Z,594.00
2023-03-06T14:41:47.420Z,578.00
2023-03-06T14:42:47.401Z,536.00
2023-03-06T14:43:47.388Z,533.00
2023-03-06T14:44:47.391Z,523.00
2023-03-06T14:46:47.465Z,520.00
2023-03-06T14:47:48.522Z,516.00
2023-03-06T14:48:47.339Z,518.00
2023-03-06T14:49:46.354Z,551.00
2023-03-06T14:50:47.330Z,534.00
2023-03-06T14:52:47.332Z,582.00
2023-03-06T14:53:47.304Z,576.00
2023-03-06T14:54:47.287Z,573.00
2023-03-06T14:55:47.296Z,576.00
2023-03-06T14:56:47.280Z,579.00
2023-03-06T14:57:47.264Z,615.00
2023-03-06T14:58:47.257Z,635.00
2023-03-06T14:59:47.313Z,631.00
2023-03-06T15:00:47.266Z,588.00
2023-03-06T15:01:47.254Z,594.00
2023-03-06T15:02:47.266Z,591.00
2023-03-06T15:03:47.213Z,594.00
2023-03-06T15:04:47.200Z,595.00
2023-03-06T15:05:47.199Z,589.00
2023-03-06T15:06:47.222Z,584.00
2023-03-06T15:07:47.172Z,582.00
2023-03-06T15:08:47.164Z,579.00
2023-03-06T15:09:47.156Z,583.00
2023-03-06T15:10:47.179Z,592.00
2023-03-06T15:11:47.561Z,596.00
2023-03-06T15:12:47.148Z,593.00
2023-03-06T15:13:47.131Z,596.00
2023-03-06T15:14:47.137Z,597.00
2023-03-06T15:15:47.114Z,595.00
2023-03-06T15:16:47.092Z,592.00
2023-03-06T15:17:47.098Z,599.00
2023-03-06T15:24:47.031Z,574.00
2023-03-06T15:27:47.030Z,581.00
2023-03-06T15:29:47.029Z,581.00
2023-03-06T15:32:46.945Z,568.00
2023-03-06T16:45:46.329Z,505.00
2023-03-06T16:48:46.281Z,507.00
2023-03-06T17:23:45.958Z,496.00
2023-03-06T18:42:45.229Z,495.00
2023-03-06T18:59:45.072Z,484.00
2023-03-06T19:41:44.707Z,488.00
2023-03-06T19:42:44.690Z,488.00
2023-03-06T19:43:45.226Z,489.00
2023-03-06T19:44:44.681Z,488.00